sensor_id;sensor_type;location;lat;lon;timestamp;pressure;altitude;pressure_sealevel;temperature;humidity
22572;BME280;11452;53.368;14.658;2022-07-22T00:04:52;101082.52;;;24.04;65.06
22572;BME280;11452;53.368;14.658;2022-07-22T00:09:58;101087.13;;;24.04;65.03
22572;BME280;11452;53.368;14.658;2022-07-22T00:15:05;101087.13;;;24.04;65.30
22572;BME280;11452;53.368;14.658;2022-07-22T00:20:10;101086.91;;;23.97;65.26
22572;BME280;11452;53.368;14.658;2022-07-22T00:25:16;101089.48;;;23.99;65.45
22572;BME280;11452;53.368;14.658;2022-07-22T00:30:22;101089.14;;;23.98;65.26
22572;BME280;11452;53.368;14.658;2022-07-22T00:35:28;101098.00;;;23.96;65.52
22572;BME280;11452;53.368;14.658;2022-07-22T00:40:34;101093.41;;;23.92;65.46
22572;BME280;11452;53.368;14.658;2022-07-22T00:45:39;101093.89;;;23.88;65.58
22572;BME280;11452;53.368;14.658;2022-07-22T00:50:45;101091.83;;;23.86;65.68
22572;BME280;11452;53.368;14.658;2022-07-22T00:55:50;101091.45;;;23.80;65.57
22572;BME280;11452;53.368;14.658;2022-07-22T01:00:58;101091.42;;;23.76;65.55
22572;BME280;11452;53.368;14.658;2022-07-22T01:06:04;101091.72;;;23.65;65.80
22572;BME280;11452;53.368;14.658;2022-07-22T01:11:11;101086.27;;;23.65;66.01
22572;BME280;11452;53.368;14.658;2022-07-22T01:16:17;101085.75;;;23.66;65.98
22572;BME280;11452;53.368;14.658;2022-07-22T01:21:23;101078.88;;;23.58;66.12
22572;BME280;11452;53.368;14.658;2022-07-22T01:26:29;101076.68;;;23.61;66.30
22572;BME280;11452;53.368;14.658;2022-07-22T01:31:37;101075.48;;;23.56;66.10
22572;BME280;11452;53.368;14.658;2022-07-22T01:36:43;101085.09;;;23.46;66.27
22572;BME280;11452;53.368;14.658;2022-07-22T01:41:49;101092.27;;;23.47;66.84
22572;BME280;11452;53.368;14.658;2022-07-22T01:46:54;101090.59;;;23.50;66.81
22572;BME280;11452;53.368;14.658;2022-07-22T01:52:02;101091.60;;;23.49;66.74
22572;BME280;11452;53.368;14.658;2022-07-22T01:57:10;101089.00;;;23.43;66.80
22572;BME280;11452;53.368;14.658;2022-07-22T02:02:17;101089.31;;;23.40;67.02
22572;BME280;11452;53.368;14.658;2022-07-22T02:07:23;101086.43;;;23.42;67.25
22572;BME280;11452;53.368;14.658;2022-07-22T02:12:30;101078.63;;;23.47;67.18
22572;BME280;11452;53.368;14.658;2022-07-22T02:17:36;101070.25;;;23.44;66.93
22572;BME280;11452;53.368;14.658;2022-07-22T02:22:43;101071.10;;;23.45;67.03
22572;BME280;11452;53.368;14.658;2022-07-22T02:27:48;101067.03;;;23.49;67.27
22572;BME280;11452;53.368;14.658;2022-07-22T02:32:55;101058.85;;;23.49;67.29
22572;BME280;11452;53.368;14.658;2022-07-22T02:38:00;101058.69;;;23.51;67.25
22572;BME280;11452;53.368;14.658;2022-07-22T02:43:07;101058.31;;;23.45;67.17
22572;BME280;11452;53.368;14.658;2022-07-22T02:48:12;101056.56;;;23.40;67.24
22572;BME280;11452;53.368;14.658;2022-07-22T02:53:18;101064.06;;;23.38;67.23
22572;BME280;11452;53.368;14.658;2022-07-22T02:58:23;101066.63;;;23.36;67.34
22572;BME280;11452;53.368;14.658;2022-07-22T03:03:30;101064.56;;;23.34;67.38
22572;BME280;11452;53.368;14.658;2022-07-22T03:08:36;101069.45;;;23.26;67.33
22572;BME280;11452;53.368;14.658;2022-07-22T03:13:42;101086.98;;;23.24;67.54
22572;BME280;11452;53.368;14.658;2022-07-22T03:18:49;101087.30;;;23.21;67.67
22572;BME280;11452;53.368;14.658;2022-07-22T03:23:55;101081.69;;;23.18;67.76
22572;BME280;11452;53.368;14.658;2022-07-22T03:29:01;101089.48;;;23.13;67.96
22572;BME280;11452;53.368;14.658;2022-07-22T03:34:06;101091.35;;;23.12;68.15
22572;BME280;11452;53.368;14.658;2022-07-22T03:39:14;101092.55;;;23.14;68.36
22572;BME280;11452;53.368;14.658;2022-07-22T03:44:20;101096.50;;;23.16;68.41
22572;BME280;11452;53.368;14.658;2022-07-22T03:49:26;101099.73;;;23.15;68.33
22572;BME280;11452;53.368;14.658;2022-07-22T03:54:34;101100.55;;;23.11;68.47
22572;BME280;11452;53.368;14.658;2022-07-22T03:59:39;101108.88;;;23.10;68.33
22572;BME280;11452;53.368;14.658;2022-07-22T04:04:45;101105.84;;;23.13;68.73
22572;BME280;11452;53.368;14.658;2022-07-22T04:09:52;101105.65;;;23.10;68.64
22572;BME280;11452;53.368;14.658;2022-07-22T04:15:00;101100.55;;;23.11;68.90
22572;BME280;11452;53.368;14.658;2022-07-22T04:20:06;101098.87;;;23.14;68.89
22572;BME280;11452;53.368;14.658;2022-07-22T04:25:13;101089.87;;;23.18;69.02
22572;BME280;11452;53.368;14.658;2022-07-22T04:30:19;101085.27;;;23.23;68.91
22572;BME280;11452;53.368;14.658;2022-07-22T04:35:26;101088.00;;;23.23;68.78
22572;BME280;11452;53.368;14.658;2022-07-22T04:40:33;101080.02;;;23.25;68.88
22572;BME280;11452;53.368;14.658;2022-07-22T04:45:39;101085.34;;;23.31;68.75
22572;BME280;11452;53.368;14.658;2022-07-22T04:50:45;101090.30;;;23.31;68.61
22572;BME280;11452;53.368;14.658;2022-07-22T04:55:51;101087.06;;;23.32;68.64
22572;BME280;11452;53.368;14.658;2022-07-22T05:00:57;101087.06;;;23.32;68.56
22572;BME280;11452;53.368;14.658;2022-07-22T05:06:03;101093.56;;;23.39;68.45
22572;BME280;11452;53.368;14.658;2022-07-22T05:11:11;101088.61;;;23.34;68.00
22572;BME280;11452;53.368;14.658;2022-07-22T05:16:17;101095.91;;;23.30;68.30
22572;BME280;11452;53.368;14.658;2022-07-22T05:21:23;101097.97;;;23.32;68.17
22572;BME280;11452;53.368;14.658;2022-07-22T05:26:30;101101.71;;;23.31;68.32
22572;BME280;11452;53.368;14.658;2022-07-22T05:31:38;101096.95;;;23.33;68.53
22572;BME280;11452;53.368;14.658;2022-07-22T05:36:44;101103.97;;;23.39;68.72
22572;BME280;11452;53.368;14.658;2022-07-22T05:41:50;101106.55;;;23.41;68.67
22572;BME280;11452;53.368;14.658;2022-07-22T05:46:58;101105.05;;;23.46;68.63
22572;BME280;11452;53.368;14.658;2022-07-22T05:52:04;101111.41;;;23.51;68.61
22572;BME280;11452;53.368;14.658;2022-07-22T05:57:10;101109.41;;;23.53;68.23
22572;BME280;11452;53.368;14.658;2022-07-22T06:02:15;101110.11;;;23.55;68.48
22572;BME280;11452;53.368;14.658;2022-07-22T06:07:22;101105.38;;;23.65;68.69
22572;BME280;11452;53.368;14.658;2022-07-22T06:12:31;101108.19;;;23.81;68.59
22572;BME280;11452;53.368;14.658;2022-07-22T06:17:37;101105.88;;;23.99;69.40
22572;BME280;11452;53.368;14.658;2022-07-22T06:22:44;101105.86;;;24.29;68.82
22572;BME280;11452;53.368;14.658;2022-07-22T06:27:49;101102.66;;;24.54;68.31
22572;BME280;11452;53.368;14.658;2022-07-22T06:32:55;101101.84;;;24.65;66.30
22572;BME280;11452;53.368;14.658;2022-07-22T06:38:01;101112.95;;;24.76;66.75
22572;BME280;11452;53.368;14.658;2022-07-22T06:43:09;101112.27;;;24.74;65.81
22572;BME280;11452;53.368;14.658;2022-07-22T06:48:25;101117.23;;;24.78;65.63
22572;BME280;11452;53.368;14.658;2022-07-22T06:53:32;101120.31;;;24.92;65.18
22572;BME280;11452;53.368;14.658;2022-07-22T06:58:39;101130.40;;;24.79;64.56
22572;BME280;11452;53.368;14.658;2022-07-22T07:03:44;101132.80;;;24.82;64.57
22572;BME280;11452;53.368;14.658;2022-07-22T07:08:50;101135.56;;;25.06;64.63
22572;BME280;11452;53.368;14.658;2022-07-22T07:13:56;101131.48;;;25.02;63.67
22572;BME280;11452;53.368;14.658;2022-07-22T07:19:02;101119.86;;;25.04;63.54
22572;BME280;11452;53.368;14.658;2022-07-22T07:24:08;101123.45;;;25.21;63.17
22572;BME280;11452;53.368;14.658;2022-07-22T07:29:14;101128.73;;;25.14;62.95
22572;BME280;11452;53.368;14.658;2022-07-22T07:34:21;101117.28;;;25.15;62.07
22572;BME280;11452;53.368;14.658;2022-07-22T07:39:27;101133.52;;;25.12;61.85
22572;BME280;11452;53.368;14.658;2022-07-22T07:44:34;101127.02;;;25.30;62.27
22572;BME280;11452;53.368;14.658;2022-07-22T07:49:41;101129.55;;;25.43;61.00
22572;BME280;11452;53.368;14.658;2022-07-22T07:54:46;101132.33;;;25.15;61.18
22572;BME280;11452;53.368;14.658;2022-07-22T07:59:54;101141.92;;;25.23;61.23
22572;BME280;11452;53.368;14.658;2022-07-22T08:04:59;101136.57;;;25.50;61.61
22572;BME280;11452;53.368;14.658;2022-07-22T08:10:08;101138.63;;;25.68;61.47
22572;BME280;11452;53.368;14.658;2022-07-22T08:15:33;101134.63;;;25.95;61.94
22572;BME280;11452;53.368;14.658;2022-07-22T08:20:40;101128.84;;;26.25;61.42
22572;BME280;11452;53.368;14.658;2022-07-22T08:25:47;101135.65;;;26.37;59.68
22572;BME280;11452;53.368;14.658;2022-07-22T08:30:53;101129.85;;;26.28;59.16
22572;BME280;11452;53.368;14.658;2022-07-22T08:35:58;101134.50;;;26.32;59.24
22572;BME280;11452;53.368;14.658;2022-07-22T08:41:04;101134.08;;;26.43;58.00
22572;BME280;11452;53.368;14.658;2022-07-22T08:46:10;101136.31;;;26.43;58.13
22572;BME280;11452;53.368;14.658;2022-07-22T08:51:33;101139.41;;;26.40;57.52
22572;BME280;11452;53.368;14.658;2022-07-22T08:56:52;101137.53;;;26.37;57.28
22572;BME280;11452;53.368;14.658;2022-07-22T09:02:09;101143.15;;;26.47;57.72
22572;BME280;11452;53.368;14.658;2022-07-22T09:07:13;101138.17;;;26.74;57.62
22572;BME280;11452;53.368;14.658;2022-07-22T09:12:21;101133.34;;;27.07;57.26
22572;BME280;11452;53.368;14.658;2022-07-22T09:17:34;101129.75;;;27.06;55.88
22572;BME280;11452;53.368;14.658;2022-07-22T09:22:45;101124.20;;;27.29;55.79
22572;BME280;11452;53.368;14.658;2022-07-22T09:33:32;101129.15;;;27.34;54.35
22572;BME280;11452;53.368;14.658;2022-07-22T09:38:40;101135.94;;;27.04;52.91
22572;BME280;11452;53.368;14.658;2022-07-22T09:43:46;101142.16;;;26.98;53.35
22572;BME280;11452;53.368;14.658;2022-07-22T09:48:51;101141.48;;;26.96;53.30
22572;BME280;11452;53.368;14.658;2022-07-22T09:54:08;101149.72;;;26.96;53.02
22572;BME280;11452;53.368;14.658;2022-07-22T09:59:14;101160.23;;;26.84;52.63
22572;BME280;11452;53.368;14.658;2022-07-22T10:04:23;101172.78;;;26.79;52.60
22572;BME280;11452;53.368;14.658;2022-07-22T10:09:30;101158.19;;;26.82;53.26
22572;BME280;11452;53.368;14.658;2022-07-22T10:14:36;101148.66;;;27.01;53.18
22572;BME280;11452;53.368;14.658;2022-07-22T10:19:42;101151.29;;;27.13;52.98
22572;BME280;11452;53.368;14.658;2022-07-22T10:25:00;101150.10;;;27.12;52.54
22572;BME280;11452;53.368;14.658;2022-07-22T10:30:07;101144.89;;;27.21;53.05
22572;BME280;11452;53.368;14.658;2022-07-22T10:35:20;101155.27;;;27.30;52.97
22572;BME280;11452;53.368;14.658;2022-07-22T10:40:29;101155.77;;;27.10;52.64
22572;BME280;11452;53.368;14.658;2022-07-22T10:45:47;101153.00;;;27.14;52.11
22572;BME280;11452;53.368;14.658;2022-07-22T10:50:55;101158.28;;;26.97;52.00
22572;BME280;11452;53.368;14.658;2022-07-22T10:56:15;101169.75;;;27.01;52.01
22572;BME280;11452;53.368;14.658;2022-07-22T11:01:25;101170.43;;;27.03;52.28
22572;BME280;11452;53.368;14.658;2022-07-22T11:06:30;101170.46;;;26.90;52.15
22572;BME280;11452;53.368;14.658;2022-07-22T11:11:41;101184.79;;;26.78;52.65
22572;BME280;11452;53.368;14.658;2022-07-22T11:16:50;101189.50;;;26.65;52.44
22572;BME280;11452;53.368;14.658;2022-07-22T11:21:58;101181.78;;;26.34;52.97
22572;BME280;11452;53.368;14.658;2022-07-22T11:27:17;101185.88;;;26.26;52.90
22572;BME280;11452;53.368;14.658;2022-07-22T11:32:17;101195.37;;;26.07;53.56
22572;BME280;11452;53.368;14.658;2022-07-22T11:37:23;101201.41;;;25.94;54.19
22572;BME280;11452;53.368;14.658;2022-07-22T11:42:29;101199.53;;;25.91;55.14
22572;BME280;11452;53.368;14.658;2022-07-22T11:47:34;101195.93;;;25.94;55.99
22572;BME280;11452;53.368;14.658;2022-07-22T11:52:51;101204.27;;;26.13;56.88
22572;BME280;11452;53.368;14.658;2022-07-22T11:57:49;101202.86;;;26.33;57.45
22572;BME280;11452;53.368;14.658;2022-07-22T12:02:54;101199.02;;;26.46;57.05
22572;BME280;11452;53.368;14.658;2022-07-22T12:08:01;101203.31;;;26.45;56.51
22572;BME280;11452;53.368;14.658;2022-07-22T12:13:10;101202.70;;;26.31;56.13
22572;BME280;11452;53.368;14.658;2022-07-22T12:18:20;101201.83;;;26.22;57.07
22572;BME280;11452;53.368;14.658;2022-07-22T12:23:26;101200.98;;;26.30;57.79
22572;BME280;11452;53.368;14.658;2022-07-22T12:28:32;101195.78;;;26.43;58.37
22572;BME280;11452;53.368;14.658;2022-07-22T12:33:37;101198.60;;;26.62;58.32
22572;BME280;11452;53.368;14.658;2022-07-22T12:38:44;101191.13;;;26.78;57.95
22572;BME280;11452;53.368;14.658;2022-07-22T12:43:50;101189.56;;;26.84;57.59
22572;BME280;11452;53.368;14.658;2022-07-22T12:48:56;101195.27;;;26.74;57.06
22572;BME280;11452;53.368;14.658;2022-07-22T12:54:03;101187.84;;;26.87;58.23
22572;BME280;11452;53.368;14.658;2022-07-22T12:59:09;101180.45;;;27.14;58.20
22572;BME280;11452;53.368;14.658;2022-07-22T13:04:15;101184.34;;;27.24;57.42
22572;BME280;11452;53.368;14.658;2022-07-22T13:09:20;101189.63;;;27.07;56.43
22572;BME280;11452;53.368;14.658;2022-07-22T13:14:27;101186.72;;;27.04;54.08
22572;BME280;11452;53.368;14.658;2022-07-22T13:19:34;101190.94;;;26.84;55.30
22572;BME280;11452;53.368;14.658;2022-07-22T13:24:40;101175.58;;;27.24;54.81
22572;BME280;11452;53.368;14.658;2022-07-22T13:29:45;101181.97;;;27.40;53.88
22572;BME280;11452;53.368;14.658;2022-07-22T13:34:51;101187.46;;;27.40;52.82
22572;BME280;11452;53.368;14.658;2022-07-22T13:39:56;101189.53;;;27.56;52.06
22572;BME280;11452;53.368;14.658;2022-07-22T13:45:03;101187.42;;;28.30;49.07
22572;BME280;11452;53.368;14.658;2022-07-22T13:50:10;101194.21;;;27.89;50.99
22572;BME280;11452;53.368;14.658;2022-07-22T13:55:16;101195.54;;;27.79;49.65
22572;BME280;11452;53.368;14.658;2022-07-22T14:00:22;101194.17;;;27.56;50.03
22572;BME280;11452;53.368;14.658;2022-07-22T14:05:27;101201.22;;;27.77;50.14
22572;BME280;11452;53.368;14.658;2022-07-22T14:10:33;101202.41;;;27.79;49.32
22572;BME280;11452;53.368;14.658;2022-07-22T14:15:38;101207.42;;;27.75;48.94
22572;BME280;11452;53.368;14.658;2022-07-22T14:20:45;101199.20;;;27.71;48.65
22572;BME280;11452;53.368;14.658;2022-07-22T14:25:50;101203.88;;;27.67;47.93
22572;BME280;11452;53.368;14.658;2022-07-22T14:30:58;101204.27;;;27.41;47.86
22572;BME280;11452;53.368;14.658;2022-07-22T14:36:03;101209.64;;;27.11;48.55
22572;BME280;11452;53.368;14.658;2022-07-22T14:41:09;101141.09;;;26.49;48.18
22572;BME280;11452;53.368;14.658;2022-07-22T14:46:14;101221.94;;;26.53;48.50
22572;BME280;11452;53.368;14.658;2022-07-22T14:51:21;101231.35;;;26.59;49.04
22572;BME280;11452;53.368;14.658;2022-07-22T14:56:27;101220.05;;;26.54;49.70
22572;BME280;11452;53.368;14.658;2022-07-22T15:01:32;101221.91;;;27.01;49.92
22572;BME280;11452;53.368;14.658;2022-07-22T15:06:38;101222.25;;;26.94;48.29
22572;BME280;11452;53.368;14.658;2022-07-22T15:11:43;101218.88;;;26.87;48.54
22572;BME280;11452;53.368;14.658;2022-07-22T15:16:49;101208.08;;;26.86;48.95
22572;BME280;11452;53.368;14.658;2022-07-22T15:21:54;101208.27;;;26.80;48.57
22572;BME280;11452;53.368;14.658;2022-07-22T15:27:00;101211.67;;;26.86;48.78
22572;BME280;11452;53.368;14.658;2022-07-22T15:32:06;101193.09;;;26.70;48.76
22572;BME280;11452;53.368;14.658;2022-07-22T15:37:11;101198.59;;;26.97;49.21
22572;BME280;11452;53.368;14.658;2022-07-22T15:42:19;101188.66;;;27.18;48.88
22572;BME280;11452;53.368;14.658;2022-07-22T15:47:24;101186.51;;;27.29;48.59
22572;BME280;11452;53.368;14.658;2022-07-22T15:52:30;101180.24;;;27.20;47.42
22572;BME280;11452;53.368;14.658;2022-07-22T15:57:35;101183.20;;;27.14;48.85
22572;BME280;11452;53.368;14.658;2022-07-22T16:02:58;101178.34;;;27.81;50.02
22572;BME280;11452;53.368;14.658;2022-07-22T16:08:04;101194.59;;;27.68;47.19
22572;BME280;11452;53.368;14.658;2022-07-22T16:13:10;101193.90;;;27.70;46.72
22572;BME280;11452;53.368;14.658;2022-07-22T16:18:16;101188.69;;;27.60;46.88
22572;BME280;11452;53.368;14.658;2022-07-22T16:23:23;101199.34;;;27.59;47.21
22572;BME280;11452;53.368;14.658;2022-07-22T16:28:29;101197.44;;;27.14;47.07
22572;BME280;11452;53.368;14.658;2022-07-22T16:33:35;101193.59;;;27.00;46.40
22572;BME280;11452;53.368;14.658;2022-07-22T16:38:41;101184.34;;;26.70;47.55
22572;BME280;11452;53.368;14.658;2022-07-22T16:43:47;101189.19;;;26.56;47.91
22572;BME280;11452;53.368;14.658;2022-07-22T16:48:52;101190.38;;;26.62;48.92
22572;BME280;11452;53.368;14.658;2022-07-22T16:53:59;101192.77;;;26.65;47.48
22572;BME280;11452;53.368;14.658;2022-07-22T16:59:04;101198.19;;;26.42;48.20
22572;BME280;11452;53.368;14.658;2022-07-22T17:04:10;101188.40;;;26.47;48.10
22572;BME280;11452;53.368;14.658;2022-07-22T17:09:16;101187.88;;;26.52;47.86
22572;BME280;11452;53.368;14.658;2022-07-22T17:14:21;101178.05;;;26.58;49.02
22572;BME280;11452;53.368;14.658;2022-07-22T17:19:27;101174.94;;;27.18;48.60
22572;BME280;11452;53.368;14.658;2022-07-22T17:24:34;101167.69;;;27.44;49.30
22572;BME280;11452;53.368;14.658;2022-07-22T17:29:39;101170.00;;;27.51;47.82
22572;BME280;11452;53.368;14.658;2022-07-22T17:34:45;101168.14;;;27.29;46.58
22572;BME280;11452;53.368;14.658;2022-07-22T17:39:51;101177.20;;;27.34;46.44
22572;BME280;11452;53.368;14.658;2022-07-22T17:44:57;101171.16;;;27.61;47.51
22572;BME280;11452;53.368;14.658;2022-07-22T17:50:03;101177.23;;;27.71;45.72
22572;BME280;11452;53.368;14.658;2022-07-22T17:55:12;101176.00;;;27.74;46.27
22572;BME280;11452;53.368;14.658;2022-07-22T18:00:17;101168.97;;;27.52;45.87
22572;BME280;11452;53.368;14.658;2022-07-22T18:05:24;101173.16;;;27.07;45.30
22572;BME280;11452;53.368;14.658;2022-07-22T18:10:30;101166.47;;;27.05;45.81
22572;BME280;11452;53.368;14.658;2022-07-22T18:15:36;101165.20;;;27.12;46.11
22572;BME280;11452;53.368;14.658;2022-07-22T18:20:41;101160.35;;;27.18;45.56
22572;BME280;11452;53.368;14.658;2022-07-22T18:25:47;101158.98;;;27.18;46.00
22572;BME280;11452;53.368;14.658;2022-07-22T18:30:52;101155.84;;;27.25;45.88
22572;BME280;11452;53.368;14.658;2022-07-22T18:35:58;101157.38;;;27.05;44.96
22572;BME280;11452;53.368;14.658;2022-07-22T18:41:04;101151.78;;;27.17;44.95
22572;BME280;11452;53.368;14.658;2022-07-22T18:46:12;101161.88;;;26.71;45.44
22572;BME280;11452;53.368;14.658;2022-07-22T18:51:18;101161.49;;;26.47;45.77
22572;BME280;11452;53.368;14.658;2022-07-22T18:56:25;101158.98;;;26.25;46.35
22572;BME280;11452;53.368;14.658;2022-07-22T19:01:30;101166.94;;;26.04;46.51
22572;BME280;11452;53.368;14.658;2022-07-22T19:06:36;101172.86;;;25.72;47.14
22572;BME280;11452;53.368;14.658;2022-07-22T19:11:42;101176.61;;;25.47;47.44
22572;BME280;11452;53.368;14.658;2022-07-22T19:16:47;101181.26;;;25.22;47.95
22572;BME280;11452;53.368;14.658;2022-07-22T19:21:53;101190.41;;;24.93;48.50
22572;BME280;11452;53.368;14.658;2022-07-22T19:26:58;101199.24;;;24.70;49.09
22572;BME280;11452;53.368;14.658;2022-07-22T19:32:04;101195.44;;;24.47;49.69
22572;BME280;11452;53.368;14.658;2022-07-22T19:37:09;101192.10;;;24.27;50.23
22572;BME280;11452;53.368;14.658;2022-07-22T19:42:17;101193.71;;;24.12;50.85
22572;BME280;11452;53.368;14.658;2022-07-22T19:47:22;101199.22;;;23.94;51.47
22572;BME280;11452;53.368;14.658;2022-07-22T19:52:28;101193.84;;;23.80;52.09
22572;BME280;11452;53.368;14.658;2022-07-22T19:57:35;101197.13;;;23.62;52.56
22572;BME280;11452;53.368;14.658;2022-07-22T20:02:41;101189.15;;;23.47;53.16
22572;BME280;11452;53.368;14.658;2022-07-22T20:07:46;101191.40;;;23.30;53.51
22572;BME280;11452;53.368;14.658;2022-07-22T20:12:52;101188.88;;;23.14;54.02
22572;BME280;11452;53.368;14.658;2022-07-22T20:17:59;101199.29;;;22.97;54.45
22572;BME280;11452;53.368;14.658;2022-07-22T20:23:05;101200.66;;;22.84;54.97
22572;BME280;11452;53.368;14.658;2022-07-22T20:28:10;101202.67;;;22.68;55.42
22572;BME280;11452;53.368;14.658;2022-07-22T20:33:17;101201.18;;;22.56;55.90
22572;BME280;11452;53.368;14.658;2022-07-22T20:38:23;101196.09;;;22.43;56.26
22572;BME280;11452;53.368;14.658;2022-07-22T20:43:28;101195.22;;;22.29;56.75
22572;BME280;11452;53.368;14.658;2022-07-22T20:48:34;101188.41;;;22.15;57.20
22572;BME280;11452;53.368;14.658;2022-07-22T20:53:41;101189.97;;;22.04;57.67
22572;BME280;11452;53.368;14.658;2022-07-22T20:58:47;101188.74;;;21.93;57.99
22572;BME280;11452;53.368;14.658;2022-07-22T21:03:52;101190.02;;;21.75;58.36
22572;BME280;11452;53.368;14.658;2022-07-22T21:08:58;101194.14;;;21.65;58.81
22572;BME280;11452;53.368;14.658;2022-07-22T21:14:04;101191.49;;;21.60;59.28
22572;BME280;11452;53.368;14.658;2022-07-22T21:19:10;101195.96;;;21.51;59.54
22572;BME280;11452;53.368;14.658;2022-07-22T21:24:16;101189.66;;;21.41;59.88
22572;BME280;11452;53.368;14.658;2022-07-22T21:29:22;101191.05;;;21.31;60.27
22572;BME280;11452;53.368;14.658;2022-07-22T21:34:28;101191.61;;;21.25;60.59
22572;BME280;11452;53.368;14.658;2022-07-22T21:39:34;101187.66;;;21.14;60.86
22572;BME280;11452;53.368;14.658;2022-07-22T21:44:39;101179.84;;;21.05;61.14
22572;BME280;11452;53.368;14.658;2022-07-22T21:49:45;101183.08;;;20.95;61.41
22572;BME280;11452;53.368;14.658;2022-07-22T21:54:50;101186.99;;;20.87;61.55
22572;BME280;11452;53.368;14.658;2022-07-22T21:59:56;101186.64;;;20.77;61.84
22572;BME280;11452;53.368;14.658;2022-07-22T22:05:01;101174.73;;;20.68;62.12
22572;BME280;11452;53.368;14.658;2022-07-22T22:10:07;101177.88;;;20.63;62.48
22572;BME280;11452;53.368;14.658;2022-07-22T22:15:13;101176.59;;;20.58;62.67
22572;BME280;11452;53.368;14.658;2022-07-22T22:20:19;101183.08;;;20.51;62.99
22572;BME280;11452;53.368;14.658;2022-07-22T22:25:24;101176.97;;;20.44;63.21
22572;BME280;11452;53.368;14.658;2022-07-22T22:30:30;101175.33;;;20.37;63.44
22572;BME280;11452;53.368;14.658;2022-07-22T22:35:35;101170.05;;;20.30;63.58
22572;BME280;11452;53.368;14.658;2022-07-22T22:40:41;101166.68;;;20.22;63.82
22572;BME280;11452;53.368;14.658;2022-07-22T22:45:46;101169.80;;;20.18;64.33
22572;BME280;11452;53.368;14.658;2022-07-22T22:50:52;101170.84;;;20.11;64.35
22572;BME280;11452;53.368;14.658;2022-07-22T22:55:57;101166.45;;;20.04;64.47
22572;BME280;11452;53.368;14.658;2022-07-22T23:01:05;101158.73;;;20.00;64.71
22572;BME280;11452;53.368;14.658;2022-07-22T23:06:12;101160.13;;;19.94;64.89
22572;BME280;11452;53.368;14.658;2022-07-22T23:11:18;101160.30;;;19.87;65.35
22572;BME280;11452;53.368;14.658;2022-07-22T23:16:23;101159.28;;;19.79;65.07
22572;BME280;11452;53.368;14.658;2022-07-22T23:21:29;101169.00;;;19.66;65.33
22572;BME280;11452;53.368;14.658;2022-07-22T23:26:34;101173.83;;;19.62;65.87
22572;BME280;11452;53.368;14.658;2022-07-22T23:31:40;101174.72;;;19.57;65.95
22572;BME280;11452;53.368;14.658;2022-07-22T23:36:45;101167.34;;;19.54;66.40
22572;BME280;11452;53.368;14.658;2022-07-22T23:41:51;101163.03;;;19.51;66.47
22572;BME280;11452;53.368;14.658;2022-07-22T23:46:57;101175.50;;;19.48;66.59
22572;BME280;11452;53.368;14.658;2022-07-22T23:52:02;101173.41;;;19.46;66.86
22572;BME280;11452;53.368;14.658;2022-07-22T23:57:08;101177.61;;;19.45;67.03
